Latest Weather Observations for Orbost

IDV60801

Issued at 2:31 pm EDT Saturday 20 December 2014 (issued every 30 minutes, with the page automatically refreshed every 10 minutes)

About weather observations | Map of weather stations | Latest weather observations for VIC | Other Formats
Station Details ID: 084145 Name: ORBOST Lat: -37.69 Lon: 148.47 Height: 62.65 m
Data from the previous 72 hours. | See also: Recent months at Orbost
Date/Time
EDT
Temp
°C
App
Temp
°C
Dew
Point
Rel
Hum
%
Delta-T
°C
Wind Press
QNH
hPa
Press
MSL
hPa
Rain
since 9 am
mm
Dir
 
Spd
km/h
Gust
km/h
Spd
kts
Gust
kts
20/02:30pm 19.2 17.4 10.7 58 4.6 SSE 11 15 6 8 1017.6 1017.5 0.0
20/02:00pm 19.1 17.3 10.9 59 4.5 S 11 19 6 10 1017.7 1017.6 0.0
20/01:30pm 19.1 17.2 10.6 58 4.6 SSE 11 19 6 10 1017.7 1017.6 0.0
20/01:00pm 18.4 16.4 10.3 59 4.3 S 11 20 6 11 1018.0 1017.9 0.0
20/12:30pm 19.5 18.1 11.0 58 4.6 SW 9 20 5 11 1018.1 1018.0 0.0
20/12:00pm 18.7 16.7 10.0 57 4.6 SW 11 20 6 11 1018.2 1018.1 0.0
20/11:30am 18.1 16.2 9.2 56 4.7 SW 9 17 5 9 1018.5 1018.4 0.0
20/11:00am 18.2 16.2 8.7 54 4.9 WSW 9 17 5 9 1018.4 1018.3 0.0
20/10:30am 17.7 15.5 7.7 52 5.1 W 9 20 5 11 1018.3 1018.2 0.0
20/10:00am 17.2 14.7 8.4 56 4.5 W 11 17 6 9 1018.4 1018.3 0.0
20/09:30am 16.7 14.7 8.7 59 4.1 WNW 9 17 5 9 1018.5 1018.4 0.0
20/09:00am 16.1 13.6 8.3 60 4.0 W 11 17 6 9 1018.6 1018.5 0.0
20/08:30am 15.6 13.6 8.8 64 3.5 WNW 9 13 5 7 1018.5 1018.4 0.0
20/08:00am 14.6 12.5 8.3 66 3.2 NW 9 19 5 10 1018.4 1018.3 0.0
20/07:30am 13.8 12.1 8.4 70 2.7 NW 7 15 4 8 1018.2 1018.1 0.0
20/07:00am 12.6 10.7 8.9 78 1.9 NNW 9 13 5 7 1018.1 1018.0 0.0
20/06:30am 10.8 8.7 8.4 85 1.2 N 9 11 5 6 1017.9 1017.8 0.0
20/06:00am 9.7 7.9 7.8 88 0.9 NNW 7 9 4 5 1017.8 1017.7 0.0
20/05:30am 9.9 8.1 8.0 88 0.9 N 7 9 4 5 1017.6 1017.5 0.0
20/05:00am 9.8 8.0 8.1 89 0.8 NNW 7 9 4 5 1017.6 1017.5 0.0
20/04:30am 10.0 8.4 8.1 88 0.9 N 6 7 3 4 1017.5 1017.4 0.0
20/04:00am 10.1 8.4 8.2 88 0.9 NNW 7 9 4 5 1017.5 1017.4 0.0
20/03:30am 10.7 9.2 8.6 87 1.0 NW 6 7 3 4 1017.5 1017.4 0.0
20/03:00am 11.0 10.0 8.8 86 1.1 WNW 4 4 2 2 1017.7 1017.6 0.0
20/02:30am 11.8 10.3 9.0 83 1.4 NNW 7 11 4 6 1017.7 1017.6 0.0
20/02:00am 12.0 10.2 9.4 84 1.3 NNW 9 11 5 6 1017.8 1017.7 0.0
20/01:30am 11.7 10.1 8.9 83 1.4 NNW 7 11 4 6 1018.1 1018.0 0.0
20/01:00am 12.2 10.8 9.6 84 1.3 NNW 7 9 4 5 1018.3 1018.2 0.0
20/12:30am 12.2 10.8 9.6 84 1.3 N 7 9 4 5 1018.6 1018.5 0.0
20/12:00am 12.7 11.3 9.7 82 1.5 N 7 9 4 5 1018.8 1018.7 0.0
 
Date/Time
EDT
Temp
°C
App
Temp
°C
Dew
Point
Rel
Hum
%
Delta-T
°C
Wind Press
QNH
hPa
Press
MSL
hPa
Rain
since 9 am
mm
Dir
 
Spd
km/h
Gust
km/h
Spd
kts
Gust
kts
19/11:30pm 12.3 10.9 9.7 84 1.3 N 7 9 4 5 1019.0 1018.9 0.0
19/11:00pm 13.1 12.1 10.3 83 1.4 N 6 6 3 3 1019.2 1019.1 0.0
19/10:30pm 13.5 13.0 10.7 83 1.5 N 4 6 2 3 1019.2 1019.1 0.0
19/10:00pm 13.9 13.4 10.9 82 1.6 NW 4 4 2 2 1019.2 1019.1 0.0
19/09:30pm 14.1 13.8 10.1 77 2.1 WNW 2 4 1 2 1019.0 1018.9 0.0
19/09:00pm 14.4 13.5 9.4 72 2.6 W 4 4 2 2 1019.0 1018.9 0.0
19/08:30pm 14.7 13.8 9.3 70 2.8 WSW 4 7 2 4 1018.8 1018.7 0.0
19/08:00pm 14.8 12.8 8.7 67 3.1 SSW 9 13 5 7 1018.5 1018.4 0.0
19/07:30pm 15.1 12.7 8.6 65 3.3 SW 11 17 6 9 1018.3 1018.2 0.0
19/07:00pm 15.6 12.9 8.8 64 3.5 SSW 13 20 7 11 1017.8 1017.7 0.0
19/06:30pm 16.3 13.5 8.5 60 4.0 SW 13 22 7 12 1017.4 1017.3 0.0
19/06:00pm 16.6 13.6 9.1 61 3.9 SSW 15 24 8 13 1017.2 1017.1 0.0
19/05:30pm 17.4 13.9 8.8 57 4.5 SSW 17 22 9 12 1016.8 1016.7 0.0
19/05:00pm 16.3 13.2 8.8 61 3.9 SSW 15 26 8 14 1016.6 1016.5 0.0
19/04:30pm 16.3 12.9 9.3 63 3.6 SW 17 26 9 14 1016.5 1016.4 0.0
19/04:00pm 17.9 15.2 10.3 61 4.1 SSW 15 22 8 12 1016.4 1016.3 0.0
19/03:30pm 17.8 14.5 9.7 59 4.3 SW 17 28 9 15 1016.3 1016.2 0.0
19/03:00pm 17.9 14.8 10.3 61 4.1 SW 17 30 9 16 1016.1 1016.0 0.0
19/02:30pm 13.9 10.5 9.1 73 2.4 WSW 17 32 9 17 1016.4 1016.3 0.0
19/02:00pm 15.7 12.7 9.1 65 3.4 WSW 15 20 8 11 1016.2 1016.1 0.0
19/01:30pm 16.6 13.8 10.0 65 3.5 WSW 15 22 8 12 1016.0 1015.9 0.0
19/01:00pm 15.8 13.7 9.7 67 3.2 WSW 11 17 6 9 1016.1 1016.0 0.0
19/12:30pm 15.6 10.9 7.9 60 3.9 WSW 22 33 12 18 1015.9 1015.8 0.0
19/12:00pm 16.6 12.1 8.6 59 4.1 SW 22 37 12 20 1015.6 1015.5 0.0
19/11:30am 17.8 13.5 7.8 52 5.1 WSW 20 32 11 17 1015.2 1015.1 0.0
19/11:00am 17.1 13.1 8.3 56 4.5 WSW 19 28 10 15 1015.1 1015.0 0.0
19/10:30am 15.2 10.9 7.7 61 3.7 WSW 20 30 11 16 1015.4 1015.3 0.0
19/10:00am 15.8 12.4 9.0 64 3.5 W 17 24 9 13 1015.1 1015.0 0.0
19/09:30am 15.6 12.1 8.8 64 3.5 W 17 28 9 15 1015.3 1015.2 0.0
19/09:00am 15.6 12.2 9.1 65 3.3 W 17 26 9 14 1015.2 1015.1 12.2
19/08:30am 14.8 11.5 9.4 70 2.8 W 17 26 9 14 1014.8 1014.7 12.2
19/08:00am 14.1 11.5 9.5 74 2.4 W 13 22 7 12 1014.6 1014.5 12.2
19/07:30am 13.2 10.7 9.6 79 1.8 W 13 20 7 11 1014.1 1014.0 12.2
19/07:00am 12.2 10.0 9.4 83 1.4 W 11 17 6 9 1013.7 1013.5 12.2
19/06:30am 11.1 9.7 9.0 87 1.0 WNW 6 9 3 5 1013.4 1013.2 12.2
19/06:00am 10.5 8.9 8.6 88 0.9 WNW 7 11 4 6 1013.1 1012.9 12.2
19/05:30am 10.4 8.8 8.8 90 0.8 WNW 7 11 4 6 1012.7 1012.5 12.2
19/05:00am 10.9 9.4 9.0 88 0.9 W 7 9 4 5 1012.4 1012.2 12.2
19/04:30am 11.3 9.4 9.2 87 1.1 WNW 9 15 5 8 1012.0 1011.8 12.2
19/04:00am 11.3 9.5 9.4 88 1.0 WNW 9 15 5 8 1011.9 1011.7 12.2
19/03:30am 12.1 10.0 9.7 85 1.2 NW 11 17 6 9 1011.8 1011.6 12.2
19/03:00am 12.2 10.5 9.9 86 1.2 NW 9 15 5 8 1011.7 1011.5 12.2
19/02:30am 12.5 10.5 10.2 86 1.2 WNW 11 15 6 8 1011.6 1011.4 12.2
19/02:00am 12.9 11.0 10.6 86 1.2 WNW 11 19 6 10 1011.6 1011.4 12.2
19/01:30am 12.8 11.4 11.0 89 0.9 WNW 9 15 5 8 1011.6 1011.4 12.2
19/01:00am 12.8 11.5 11.4 91 0.7 WNW 9 15 5 8 1011.7 1011.5 12.2
19/12:30am 12.7 12.0 11.9 95 0.4 NW 7 11 4 6 1011.8 1011.6 12.0
19/12:00am 12.5 11.8 11.9 96 0.3 NW 7 11 4 6 1011.9 1011.7 12.0
 
Date/Time
EDT
Temp
°C
App
Temp
°C
Dew
Point
Rel
Hum
%
Delta-T
°C
Wind Press
QNH
hPa
Press
MSL
hPa
Rain
since 9 am
mm
Dir
 
Spd
km/h
Gust
km/h
Spd
kts
Gust
kts
18/11:30pm 12.6 12.0 11.8 95 0.4 WNW 6 13 3 7 1011.6 1011.4 11.4
18/11:00pm 12.8 12.2 12.2 96 0.3 NW 7 11 4 6 1011.9 1011.7 8.0
18/10:30pm 12.8 12.3 12.0 95 0.4 NW 6 7 3 4 1011.9 1011.7 6.0
18/10:00pm 13.2 13.2 12.4 95 0.4 NW 4 7 2 4 1011.8 1011.6 4.6
18/09:30pm 13.3 12.9 12.5 95 0.4 WNW 6 9 3 5 1011.6 1011.4 4.2
18/09:00pm 13.4 10.5 12.3 93 0.6 SW 19 37 10 20 1011.5 1011.3 3.2
18/08:30pm 15.8 13.5 11.6 76 2.3 SSW 15 28 8 15 1010.6 1010.4 0.0
18/08:00pm 16.6 16.2 11.1 70 3.0 SSW 4 6 2 3 1009.6 1009.4 0.0
18/07:30pm 17.1 15.4 10.0 63 3.8 S 9 19 5 10 1008.6 1008.4 0.0
18/07:00pm 17.5 15.7 12.2 71 2.9 SSW 13 20 7 11 1007.8 1007.6 0.0
18/06:30pm 18.1 15.2 11.0 63 3.9 SSW 17 24 9 13 1006.6 1006.5 0.0
18/06:00pm 19.3 16.3 11.8 62 4.2 SSW 19 32 10 17 1006.3 1006.2 0.0
18/05:30pm 20.0 16.4 11.8 59 4.6 SSW 22 41 12 22 1005.0 1004.9 0.0
18/05:00pm 23.2 21.1 8.1 38 8.0 SSE 9 15 5 8 1003.7 1003.6 0.0
18/04:30pm 23.8 22.7 10.5 43 7.4 S 7 15 4 8 1003.5 1003.4 0.0
18/04:00pm 24.4 21.6 7.1 33 9.1 E 11 19 6 10 1003.3 1003.2 0.0
18/03:30pm 22.9 21.2 7.4 37 8.1 SE 6 13 3 7 1003.5 1003.4 0.0
18/03:00pm 23.2 20.9 7.3 36 8.3 SSE 9 19 5 10 1003.4 1003.3 0.0
18/02:30pm 25.6 22.6 7.7 32 9.5 SSE 13 24 7 13 1003.2 1003.1 0.0
18/02:00pm 26.2 23.9 7.3 30 10.1 ESE 9 15 5 8 1003.4 1003.3 0.0
18/01:30pm 25.9 24.0 6.5 29 10.1 N 6 11 3 6 1003.6 1003.5 0.0
18/01:00pm 25.5 23.8 5.7 28 10.2 NW 4 9 2 5 1004.1 1004.0 0.0
18/12:30pm 25.3 23.2 6.5 30 9.8 W 7 13 4 7 1004.6 1004.5 0.0
18/12:00pm 25.0 23.8 9.7 38 8.4 WNW 6 13 3 7 1004.9 1004.8 0.0
18/11:30am 24.6 22.3 7.3 33 9.1 WNW 9 17 5 9 1005.3 1005.2 0.0
18/11:00am 24.4 21.4 6.2 31 9.4 NNW 11 17 6 9 1005.5 1005.4 0.0
18/10:30am 23.8 19.6 5.7 31 9.2 NNW 17 22 9 12 1005.6 1005.5 0.0
18/10:00am 23.2 19.6 6.9 35 8.5 NNW 15 20 8 11 1005.7 1005.6 0.0
18/09:30am 22.3 21.3 11.1 49 6.2 NW 7 13 4 7 1005.8 1005.7 0.0
18/09:00am 20.4 20.1 12.6 61 4.4 W 6 9 3 5 1006.4 1006.3 0.0
18/08:30am 18.7 18.7 11.3 62 4.0 NNE 2 4 1 2 1006.6 1006.5 0.0
18/08:00am 16.7 17.1 11.4 71 2.9 CALM 0 0 0 0 1006.7 1006.6 0.0
18/07:30am 14.1 14.2 10.1 77 2.1 CALM 0 0 0 0 1006.6 1006.5 0.0
18/07:00am - - - - - CALM 0 0 0 0 1006.8 1006.7 0.0
18/06:30am 10.1 9.5 9.0 93 0.5 NNW 2 4 1 2 1006.6 1006.5 0.0
18/06:00am 10.9 10.7 9.2 89 0.9 CALM 0 2 0 1 1006.5 1006.4 0.0
18/05:30am 11.1 10.6 9.2 88 1.0 ENE 2 6 1 3 1006.3 1006.2 0.0
18/05:00am 11.7 10.2 9.3 85 1.2 E 7 9 4 5 1006.3 1006.2 0.0
18/04:30am 12.3 10.8 9.0 80 1.7 E 7 9 4 5 1006.5 1006.4 0.0
18/04:00am 12.6 10.7 9.1 79 1.8 ENE 9 13 5 7 1006.6 1006.5 0.0
18/03:30am 12.8 11.3 9.3 79 1.8 E 7 11 4 6 1006.9 1006.8 0.0
18/03:00am 12.6 11.7 9.1 79 1.8 E 4 6 2 3 1007.4 1007.2 0.0
18/02:30am 13.4 12.0 8.9 74 2.3 ESE 6 7 3 4 1007.8 1007.6 0.0
18/02:00am 14.3 13.4 9.3 72 2.6 ESE 4 9 2 5 1008.4 1008.2 0.0
18/01:30am 14.4 13.6 9.8 74 2.4 SE 4 6 2 3 1008.6 1008.4 0.0
18/01:00am 14.7 13.4 9.3 70 2.8 E 6 11 3 6 1009.0 1008.8 0.0
18/12:30am 14.7 13.5 9.5 71 2.7 E 6 9 3 5 1009.2 1009.0 0.0
18/12:00am 14.8 13.6 9.6 71 2.7 E 6 11 3 6 1009.7 1009.5 0.0
 
Date/Time
EDT
Temp
°C
App
Temp
°C
Dew
Point
Rel
Hum
%
Delta-T
°C
Wind Press
QNH
hPa
Press
MSL
hPa
Rain
since 9 am
mm
Dir
 
Spd
km/h
Gust
km/h
Spd
kts
Gust
kts
17/11:30pm 14.8 13.6 9.6 71 2.7 ESE 6 7 3 4 1010.2 1010.0 0.0
17/11:00pm 14.8 13.9 9.4 70 2.8 E 4 7 2 4 1010.5 1010.3 0.0
17/10:30pm 14.9 14.1 9.5 70 2.8 E 4 6 2 3 1010.7 1010.5 0.0
17/10:00pm 15.0 14.1 9.1 68 3.0 E 4 6 2 3 1010.8 1010.6 0.0
17/09:30pm 14.9 14.1 9.5 70 2.8 E 4 6 2 3 1010.8 1010.6 0.0
17/09:00pm 15.0 14.1 9.1 68 3.0 E 4 6 2 3 1010.7 1010.5 0.0
17/08:30pm 15.0 14.1 9.1 68 3.0 ESE 4 6 2 3 1010.6 1010.4 0.0
17/08:00pm 15.3 14.4 9.2 67 3.1 SE 4 9 2 5 1010.4 1010.2 0.0
17/07:30pm 16.0 15.3 10.1 68 3.1 SE 4 11 2 6 1009.8 1009.6 0.0
17/07:00pm 15.8 14.3 9.0 64 3.5 SSE 7 15 4 8 1009.3 1009.1 0.0
17/06:30pm 16.6 14.6 8.8 60 4.0 SSE 9 17 5 9 1008.9 1008.7 0.0
17/06:00pm 17.4 15.9 9.3 59 4.2 SE 7 19 4 10 1008.7 1008.5 0.0
17/05:30pm 17.5 15.4 8.4 55 4.7 SE 9 17 5 9 1008.6 1008.4 0.0
17/05:00pm 17.9 15.4 9.8 59 4.3 S 13 22 7 12 1008.6 1008.4 0.0
17/04:30pm 17.3 14.3 7.9 54 4.8 S 13 22 7 12 1008.7 1008.5 0.0
17/04:00pm 17.8 14.7 8.9 56 4.6 S 15 22 8 12 1008.6 1008.4 0.0
17/03:30pm 18.5 16.1 10.1 58 4.5 S 13 20 7 11 1008.6 1008.4 0.0
17/03:00pm 17.4 13.3 8.8 57 4.5 SSW 20 28 11 15 1008.5 1008.3 0.0

Other Formats:

Comma delimited format used in spreadsheet applications
http://www.bom.gov.au/fwo/IDV60801/IDV60801.95918.axf

JavaScript Object Notation format (JSON) in row-major order
http://www.bom.gov.au/fwo/IDV60801/IDV60801.95918.json